Time;durP1;ratioP1;P1;durP2;ratioP2;P2;SDS_P1;SDS_P2;PMS_P1;PMS_P2;Temp;Humidity;BMP_temperature;BMP_pressure;BME280_temperature;BME280_humidity;BME280_pressure;Samples;Min_cycle;Max_cycle;Signal;HPM_P1;HPM_P2
2021/04/07 00:02:52;;;;;;;37.60;16.60;;;;;;;-1.68;66.30;97748.55;2210036;80;21673;-77
2021/04/07 00:05:53;;;;;;;28.53;13.60;;;;;;;-1.68;66.33;97749.42;2210186;80;21130;-78
2021/04/07 00:08:54;;;;;;;27.80;12.80;;;;;;;-1.71;66.34;97743.31;2210441;80;21416;-77
2021/04/07 00:11:55;;;;;;;26.60;13.23;;;;;;;-1.72;66.43;97751.39;2210226;80;21126;-78
2021/04/07 00:14:56;;;;;;;29.23;13.83;;;;;;;-1.78;66.48;97744.70;2210230;80;21563;-78
2021/04/07 00:17:57;;;;;;;28.83;13.57;;;;;;;-1.82;66.44;97747.06;2210195;80;21269;-79
2021/04/07 00:20:59;;;;;;;34.10;15.80;;;;;;;-1.85;66.60;97752.05;2210071;80;21280;-78
2021/04/07 00:24:00;;;;;;;33.07;14.73;;;;;;;-1.89;66.62;97756.16;2210119;80;21245;-78
2021/04/07 00:27:06;;;;;;;38.97;16.33;;;;;;;-1.93;66.51;97752.60;2210284;80;21121;-79
2021/04/07 00:30:04;;;;;;;31.00;15.60;;;;;;;-1.97;66.56;97755.84;2209614;80;21256;-78
2021/04/07 00:33:05;;;;;;;34.77;16.07;;;;;;;-2.02;66.57;97757.33;2210036;80;21268;-79
2021/04/07 00:36:06;;;;;;;29.97;13.70;;;;;;;-2.07;66.70;97760.09;2210190;80;21134;-78
2021/04/07 00:39:07;;;;;;;32.23;15.13;;;;;;;-2.08;66.79;97762.17;2210140;80;21579;-78
2021/04/07 00:42:08;;;;;;;33.20;16.10;;;;;;;-2.13;67.01;97760.23;2215299;80;21169;-78
2021/04/07 00:45:09;;;;;;;34.70;16.10;;;;;;;-2.13;67.21;97757.27;2217312;80;21276;-79
2021/04/07 00:48:11;;;;;;;36.83;16.90;;;;;;;-2.14;67.24;97759.75;2217311;80;21542;-78
2021/04/07 00:51:12;;;;;;;36.70;15.97;;;;;;;-2.15;67.40;97761.44;2217231;80;21248;-78
2021/04/07 00:54:13;;;;;;;35.70;17.30;;;;;;;-2.14;67.42;97755.92;2217278;80;21542;-77
2021/04/07 00:57:14;;;;;;;36.90;19.30;;;;;;;-2.19;67.46;97762.11;2217341;80;21264;-77
2021/04/07 01:00:15;;;;;;;39.70;18.87;;;;;;;-2.22;67.62;97754.31;2217286;80;21594;-77
2021/04/07 01:03:16;;;;;;;39.83;17.43;;;;;;;-2.22;67.86;97754.71;2217314;80;21236;-77
2021/04/07 01:06:17;;;;;;;36.20;17.53;;;;;;;-2.22;67.86;97754.31;2217330;80;21579;-77
2021/04/07 01:09:18;;;;;;;41.37;18.43;;;;;;;-2.25;67.98;97759.28;2217370;80;21244;-78
2021/04/07 01:12:19;;;;;;;44.87;18.97;;;;;;;-2.28;67.98;97762.98;2217163;80;21407;-77
2021/04/07 01:15:20;;;;;;;41.00;19.60;;;;;;;-2.30;68.08;97763.31;2217550;80;21407;-77
2021/04/07 01:18:21;;;;;;;48.07;19.90;;;;;;;-2.29;68.13;97767.22;2217268;80;21257;-78
2021/04/07 01:21:22;;;;;;;44.37;19.30;;;;;;;-2.28;68.01;97770.66;2217175;80;21121;-78
2021/04/07 01:24:23;;;;;;;39.43;18.53;;;;;;;-2.31;68.18;97769.23;2217265;80;21280;-77
2021/04/07 01:27:26;;;;;;;43.37;19.90;;;;;;;-2.36;68.21;97767.76;2217282;80;21256;-77
2021/04/07 01:30:27;;;;;;;43.97;20.50;;;;;;;-2.36;68.54;97769.44;2217243;80;21134;-78
2021/04/07 01:33:28;;;;;;;40.60;20.53;;;;;;;-2.38;68.69;97771.05;2217504;80;21412;-77
2021/04/07 01:36:29;;;;;;;46.70;19.57;;;;;;;-2.38;68.84;97771.05;2217338;80;21261;-78
2021/04/07 01:39:30;;;;;;;43.57;19.63;;;;;;;-2.39;68.83;97771.45;2217197;80;21174;-77
2021/04/07 01:42:31;;;;;;;42.73;21.00;;;;;;;-2.40;68.90;97767.15;2211545;80;21534;-77
2021/04/07 01:45:32;;;;;;;38.50;19.93;;;;;;;-2.40;68.72;97766.27;2210267;80;21269;-76
2021/04/07 01:48:33;;;;;;;37.50;19.80;;;;;;;-2.46;68.74;97780.05;2210069;80;21252;-77
2021/04/07 01:51:34;;;;;;;40.03;20.60;;;;;;;-2.47;69.16;97782.14;2210062;80;22243;-77
2021/04/07 01:54:35;;;;;;;38.97;19.50;;;;;;;-2.48;69.32;97781.66;2210185;80;21126;-78
2021/04/07 01:57:36;;;;;;;36.10;17.27;;;;;;;-2.45;70.13;97786.91;2210234;80;21264;-77
2021/04/07 02:00:37;;;;;;;38.47;18.30;;;;;;;-2.34;69.99;97794.26;2209912;80;21303;-78
2021/04/07 02:03:38;;;;;;;36.80;19.00;;;;;;;-2.29;70.06;97795.74;2210016;80;21578;-78
2021/04/07 02:06:40;;;;;;;45.93;20.83;;;;;;;-2.24;70.09;97798.09;2210163;80;21256;-77
2021/04/07 02:09:41;;;;;;;40.27;20.67;;;;;;;-2.23;70.06;97796.02;2210012;80;21249;-78
2021/04/07 02:12:42;;;;;;;42.80;20.77;;;;;;;-2.21;69.84;97803.75;2210140;80;21272;-78
2021/04/07 02:15:43;;;;;;;62.23;24.97;;;;;;;-2.09;70.36;97797.91;2210140;80;21150;-78
2021/04/07 02:18:44;;;;;;;63.87;24.10;;;;;;;-2.09;70.74;97796.22;2210046;80;21439;-77
2021/04/07 02:21:45;;;;;;;54.17;24.83;;;;;;;-2.06;69.80;97801.47;2210062;80;21291;-78
2021/04/07 02:24:46;;;;;;;53.43;23.00;;;;;;;-2.11;69.72;97802.08;2210595;80;21256;-78
2021/04/07 02:27:47;;;;;;;50.80;23.83;;;;;;;-2.15;69.69;97795.95;2210289;80;21264;-78
2021/04/07 02:30:48;;;;;;;45.17;21.93;;;;;;;-2.15;69.86;97799.78;2210216;80;21265;-78
2021/04/07 02:33:49;;;;;;;46.40;23.47;;;;;;;-2.12;70.15;97802.48;2210243;80;21173;-77
2021/04/07 02:36:50;;;;;;;45.37;23.03;;;;;;;-2.06;70.19;97806.59;2210406;80;21249;-78
2021/04/07 02:39:51;;;;;;;47.77;23.80;;;;;;;-1.95;70.30;97805.37;2210165;80;21408;-78
2021/04/07 02:42:52;;;;;;;48.40;24.20;;;;;;;-1.82;70.49;97804.63;2216078;80;21272;-79
2021/04/07 02:45:54;;;;;;;43.10;22.37;;;;;;;-1.73;70.66;97811.45;2217844;80;21106;-77
2021/04/07 02:48:55;;;;;;;40.50;22.63;;;;;;;-1.67;70.62;97808.75;2217915;80;21257;-77
2021/04/07 02:51:56;;;;;;;41.90;21.17;;;;;;;-1.63;70.24;97808.06;2217612;80;21162;-78
2021/04/07 02:54:57;;;;;;;42.03;19.97;;;;;;;-1.58;70.26;97801.86;2217687;80;21142;-77
2021/04/07 02:57:58;;;;;;;35.73;18.13;;;;;;;-1.51;70.16;97808.98;2217647;80;21299;-77
2021/04/07 03:00:59;;;;;;;39.13;19.47;;;;;;;-1.46;70.07;97810.05;2217649;80;21157;-78
2021/04/07 03:04:00;;;;;;;40.70;20.13;;;;;;;-1.48;69.92;97810.80;2217592;80;21126;-79
2021/04/07 03:07:01;;;;;;;41.30;20.63;;;;;;;-1.43;69.98;97814.42;2217509;80;21134;-79
2021/04/07 03:10:03;;;;;;;37.53;19.50;;;;;;;-1.42;69.88;97816.17;2217277;80;21423;-77
2021/04/07 03:13:04;;;;;;;39.87;19.70;;;;;;;-1.41;69.71;97814.96;2217331;80;21252;-78
2021/04/07 03:16:05;;;;;;;44.03;20.77;;;;;;;-1.40;69.85;97810.31;2217536;80;21554;-79
2021/04/07 03:19:06;;;;;;;45.97;22.90;;;;;;;-1.40;69.68;97818.39;2217479;80;21292;-78
2021/04/07 03:22:07;;;;;;;48.37;22.53;;;;;;;-1.41;69.65;97817.92;2217403;80;21173;-78
2021/04/07 03:25:08;;;;;;;43.60;22.47;;;;;;;-1.43;69.72;97821.70;2217558;80;21141;-78
2021/04/07 03:28:09;;;;;;;50.23;25.00;;;;;;;-1.44;69.67;97826.35;2217557;80;21134;-77
2021/04/07 03:31:10;;;;;;;50.23;24.33;;;;;;;-1.48;69.67;97828.72;2217540;80;21146;-77
2021/04/07 03:34:11;;;;;;;50.63;24.20;;;;;;;-1.48;69.75;97823.19;2217398;80;21264;-77
2021/04/07 03:37:12;;;;;;;54.57;22.80;;;;;;;-1.44;69.81;97823.80;2217846;80;21129;-77
2021/04/07 03:40:13;;;;;;;39.50;20.70;;;;;;;-1.45;69.84;97824.60;2217238;80;21593;-77
2021/04/07 03:43:14;;;;;;;49.07;24.37;;;;;;;-1.43;70.00;97825.55;2217198;80;21145;-78
2021/04/07 03:46:15;;;;;;;50.47;23.47;;;;;;;-1.42;69.80;97822.17;2217444;80;21263;-78
2021/04/07 03:49:16;;;;;;;44.27;21.63;;;;;;;-1.40;70.02;97828.23;2217418;80;21137;-78
2021/04/07 03:52:17;;;;;;;51.33;24.30;;;;;;;-1.36;70.08;97831.39;2217296;80;21277;-78
2021/04/07 03:55:18;;;;;;;56.83;27.27;;;;;;;-1.36;69.87;97836.91;2217452;80;21694;-78
2021/04/07 03:58:19;;;;;;;54.10;26.60;;;;;;;-1.39;69.92;97837.66;2217291;80;21252;-78
2021/04/07 04:01:21;;;;;;;61.07;30.73;;;;;;;-1.36;69.90;97843.31;2217132;80;21307;-79
2021/04/07 04:04:22;;;;;;;67.73;31.67;;;;;;;-1.38;69.80;97838.13;2217398;80;21260;-79
2021/04/07 04:07:23;;;;;;;69.83;31.53;;;;;;;-1.37;69.90;97848.84;2217356;80;21260;-78
2021/04/07 04:10:24;;;;;;;67.00;30.23;;;;;;;-1.34;69.99;97856.64;2217187;80;21590;-78
2021/04/07 04:13:25;;;;;;;60.53;28.63;;;;;;;-1.32;69.92;97851.19;2217367;80;21256;-79
2021/04/07 04:16:26;;;;;;;70.80;29.13;;;;;;;-1.26;69.87;97852.25;2217393;80;21583;-77
2021/04/07 04:19:27;;;;;;;62.87;29.90;;;;;;;-1.22;69.85;97855.00;2217554;80;21179;-78
2021/04/07 04:22:28;;;;;;;61.43;30.37;;;;;;;-1.20;69.72;97853.79;2217474;80;21166;-80
2021/04/07 04:25:29;;;;;;;61.93;29.63;;;;;;;-1.20;69.67;97853.79;2217412;80;21273;-79
2021/04/07 04:28:30;;;;;;;62.40;27.83;;;;;;;-1.15;69.71;97851.02;2217150;80;21267;-78
2021/04/07 04:31:31;;;;;;;57.43;27.50;;;;;;;-1.10;69.63;97850.80;2217229;80;21138;-79
2021/04/07 04:34:32;;;;;;;53.13;26.40;;;;;;;-1.05;69.52;97857.86;2217329;80;21256;-79
2021/04/07 04:37:33;;;;;;;63.03;28.77;;;;;;;-1.04;69.42;97858.33;2217356;80;21618;-78
2021/04/07 04:40:34;;;;;;;50.47;24.43;;;;;;;-1.00;69.36;97858.91;2217230;80;21439;-79
2021/04/07 04:43:36;;;;;;;51.43;26.23;;;;;;;-0.94;69.39;97864.70;2220499;80;21288;-79
2021/04/07 04:46:37;;;;;;;50.73;26.03;;;;;;;-0.86;69.31;97867.20;2221088;80;21098;-78
2021/04/07 04:49:38;;;;;;;49.83;28.33;;;;;;;-0.76;69.36;97874.44;2220752;80;21141;-80
2021/04/07 04:52:39;;;;;;;55.27;26.53;;;;;;;-0.65;69.37;97869.34;2220679;80;21280;-79
2021/04/07 04:55:40;;;;;;;44.43;21.83;;;;;;;-0.47;69.16;97878.56;2220947;80;21260;-80
2021/04/07 04:58:41;;;;;;;46.83;23.10;;;;;;;-0.21;74.44;97881.73;2220779;80;21291;-79
2021/04/07 05:01:42;;;;;;;44.00;23.83;;;;;;;0.23;69.31;97879.58;2221510;80;21157;-79
2021/04/07 05:04:43;;;;;;;55.30;27.70;;;;;;;0.26;69.01;97880.09;2220609;80;21114;-78
2021/04/07 05:07:44;;;;;;;52.20;28.40;;;;;;;0.12;69.29;97886.00;2220614;80;21272;-78
2021/04/07 05:10:46;;;;;;;53.77;29.93;;;;;;;0.01;69.69;97894.12;2220781;80;21252;-78
2021/04/07 05:13:47;;;;;;;45.27;27.00;;;;;;;-0.10;69.93;97899.69;2220874;80;21102;-78
2021/04/07 05:16:48;;;;;;;58.57;31.33;;;;;;;-0.14;70.87;97902.08;2220403;80;21256;-78
2021/04/07 05:19:49;;;;;;;54.37;30.00;;;;;;;-0.11;70.34;97905.63;2220782;80;21307;-82
2021/04/07 05:22:50;;;;;;;56.50;29.47;;;;;;;-0.21;70.30;97912.50;2220894;80;21284;-80
2021/04/07 05:25:51;;;;;;;56.17;29.67;;;;;;;-0.22;70.57;97918.45;2220582;80;21256;-78
2021/04/07 05:28:52;;;;;;;57.33;29.80;;;;;;;-0.16;70.92;97918.69;2220844;80;21542;-79
2021/04/07 05:31:53;;;;;;;56.47;28.53;;;;;;;-0.11;71.33;97919.74;2220870;80;21252;-79
2021/04/07 05:34:54;;;;;;;46.13;25.87;;;;;;;-0.14;71.33;97918.34;2220759;80;21102;-79
2021/04/07 05:37:56;;;;;;;45.73;22.43;;;;;;;-0.13;71.64;97920.09;2221065;80;21260;-79
2021/04/07 05:40:57;;;;;;;42.97;24.57;;;;;;;-0.07;72.06;97919.04;2220489;80;21300;-80
2021/04/07 05:43:58;;;;;;;44.40;25.13;;;;;;;0.01;71.53;97922.34;2210845;80;21154;-80
2021/04/07 05:46:59;;;;;;;46.80;25.50;;;;;;;0.07;71.50;97923.86;2210223;80;21260;-80
2021/04/07 05:50:00;;;;;;;40.43;21.97;;;;;;;0.14;71.37;97932.25;2210083;80;21248;-81
2021/04/07 05:53:01;;;;;;;47.23;23.37;;;;;;;0.32;71.09;97934.22;2210547;80;21268;-81
2021/04/07 05:56:02;;;;;;;52.63;27.07;;;;;;;0.54;70.63;97930.34;2211342;80;21257;-81
2021/04/07 05:59:03;;;;;;;54.97;27.77;;;;;;;0.67;69.89;97931.65;2211099;80;21412;-81
2021/04/07 06:02:04;;;;;;;49.13;25.73;;;;;;;0.88;69.73;97933.73;2210083;80;21142;-80
2021/04/07 06:05:06;;;;;;;52.27;25.03;;;;;;;0.95;68.76;97936.09;2210113;80;21269;-82
2021/04/07 06:08:07;;;;;;;51.40;25.63;;;;;;;1.00;68.92;97938.41;2210193;80;21257;-80
2021/04/07 06:11:08;;;;;;;56.23;26.00;;;;;;;1.09;68.59;97932.72;2209918;80;21281;-82
2021/04/07 06:14:09;;;;;;;40.13;25.17;;;;;;;1.34;68.24;97936.98;2209871;80;21447;-80
2021/04/07 06:17:10;;;;;;;29.37;17.97;;;;;;;1.56;67.60;97930.44;2210133;80;21145;-80
2021/04/07 06:20:11;;;;;;;26.97;16.37;;;;;;;1.42;66.58;97931.27;2210760;80;21157;-81
2021/04/07 06:23:12;;;;;;;29.60;16.07;;;;;;;1.30;67.28;97933.44;2210814;80;21145;-83
2021/04/07 06:26:13;;;;;;;29.80;18.47;;;;;;;1.40;67.56;97940.63;2210865;80;21090;-80
2021/04/07 06:29:14;;;;;;;27.33;17.50;;;;;;;1.49;66.90;97940.06;2210551;80;21134;-80
2021/04/07 06:32:15;;;;;;;28.30;18.83;;;;;;;1.53;66.90;97938.05;2210687;81;21134;-80
2021/04/07 06:35:16;;;;;;;32.47;16.60;;;;;;;1.65;66.90;97933.72;2210721;80;21459;-79
2021/04/07 06:38:18;;;;;;;36.07;20.13;;;;;;;1.90;65.83;97933.69;2211009;80;21102;-80
2021/04/07 06:41:19;;;;;;;32.97;19.03;;;;;;;1.91;65.11;97938.02;2211107;80;21177;-79
2021/04/07 06:44:20;;;;;;;27.77;16.13;;;;;;;2.02;65.86;97936.64;2211173;80;21162;-80
2021/04/07 06:47:21;;;;;;;29.60;18.37;;;;;;;2.12;64.23;97936.51;2210354;80;21416;-80
2021/04/07 06:50:22;;;;;;;27.13;15.40;;;;;;;2.25;64.13;97942.48;2211313;80;21133;-82
2021/04/07 06:53:23;;;;;;;23.20;15.20;;;;;;;2.37;63.37;97931.26;2210798;80;21123;-79
2021/04/07 06:56:24;;;;;;;17.20;12.37;;;;;;;2.60;64.14;97941.35;2210306;80;21245;-79
2021/04/07 06:59:25;;;;;;;18.97;13.10;;;;;;;2.69;61.98;97939.06;2211075;80;21422;-79
2021/04/07 07:02:26;;;;;;;18.50;11.73;;;;;;;2.76;62.68;97941.86;2210405;80;21129;-79
2021/04/07 07:05:27;;;;;;;17.07;11.80;;;;;;;2.84;62.18;97947.22;2210673;80;21150;-80
2021/04/07 07:08:28;;;;;;;17.73;9.93;;;;;;;2.89;61.84;97944.36;2210722;80;21539;-80
2021/04/07 07:11:29;;;;;;;14.57;8.50;;;;;;;2.71;61.28;97952.45;2211035;81;21166;-80
2021/04/07 07:14:31;;;;;;;13.33;9.13;;;;;;;2.54;60.89;97947.20;2209856;81;21110;-78
2021/04/07 07:17:32;;;;;;;15.40;10.17;;;;;;;2.58;61.93;97955.89;2210282;81;21102;-80
2021/04/07 07:20:33;;;;;;;16.77;10.83;;;;;;;2.75;61.86;97954.70;2210690;80;21170;-78
2021/04/07 07:23:35;;;;;;;12.73;8.83;;;;;;;3.02;60.19;97956.75;2210446;80;21554;-78
2021/04/07 07:26:36;;;;;;;10.87;7.97;;;;;;;3.20;59.58;97953.37;2211256;81;21142;-81
2021/04/07 07:29:37;;;;;;;13.00;7.80;;;;;;;3.24;58.88;97952.16;2211100;81;21098;-78
2021/04/07 07:32:38;;;;;;;14.43;8.87;;;;;;;2.87;58.21;97960.20;2210667;81;21480;-78
2021/04/07 07:35:39;;;;;;;14.10;8.83;;;;;;;2.74;58.91;97961.56;2210265;81;21149;-79
2021/04/07 07:38:40;;;;;;;12.93;8.73;;;;;;;3.01;57.02;97976.91;2210015;81;21269;-79
2021/04/07 07:41:41;;;;;;;12.10;6.90;;;;;;;3.06;57.55;97971.47;2210335;81;21150;-79
2021/04/07 07:44:43;;;;;;;31.80;13.83;;;;;;;3.19;55.67;97976.13;2210924;81;21106;-80
2021/04/07 07:47:45;;;;;;;24.87;11.23;;;;;;;3.34;54.68;97976.07;2210716;80;21142;-80
2021/04/07 07:50:46;;;;;;;15.83;7.17;;;;;;;3.49;54.81;97973.50;2210561;80;21474;-80
2021/04/07 07:53:49;;;;;;;14.80;7.37;;;;;;;3.77;52.28;97976.36;2210407;81;21165;-81
2021/04/07 07:56:52;;;;;;;13.27;7.10;;;;;;;4.27;54.57;97968.92;2210483;81;21150;-80
2021/04/07 07:59:57;;;;;;;12.87;6.80;;;;;;;4.33;50.54;97980.69;2210661;81;21432;-79
2021/04/07 08:02:58;;;;;;;4.12;3.65;;;;;;;4.16;50.37;97971.68;2211380;81;21137;-79
2021/04/07 08:06:01;;;;;;;14.30;6.00;;;;;;;3.91;47.22;97992.18;2210725;81;21110;-80
2021/04/07 08:09:02;;;;;;;15.97;6.90;;;;;;;3.94;49.34;97984.92;2210748;81;21666;-81
2021/04/07 08:12:03;;;;;;;11.70;5.10;;;;;;;4.44;50.20;97978.37;2210760;81;21134;-80
2021/04/07 08:15:04;;;;;;;13.23;5.70;;;;;;;4.63;48.92;97979.64;2210294;81;21268;-76
2021/04/07 08:18:05;;;;;;;14.20;5.63;;;;;;;4.45;48.25;97990.45;2210170;81;21248;-79
2021/04/07 08:21:06;;;;;;;17.00;5.40;;;;;;;4.17;47.59;98000.55;2209811;81;21236;-79
2021/04/07 08:24:07;;;;;;;12.27;6.10;;;;;;;3.97;48.23;97997.91;2210442;81;21161;-80
2021/04/07 08:27:09;;;;;;;11.63;5.67;;;;;;;3.74;47.73;98006.38;2210660;81;21138;-79
2021/04/07 08:30:10;;;;;;;8.23;4.20;;;;;;;3.68;48.57;98002.36;2210856;81;21133;-80
2021/04/07 08:33:11;;;;;;;16.93;7.73;;;;;;;3.73;48.07;98011.96;2210135;81;21177;-81
2021/04/07 08:36:12;;;;;;;13.17;6.67;;;;;;;3.64;48.38;98015.60;2210067;81;21428;-80
2021/04/07 08:39:13;;;;;;;13.47;7.70;;;;;;;3.57;50.04;98015.41;2210068;81;21170;-80
2021/04/07 08:42:14;;;;;;;15.20;7.67;;;;;;;3.50;50.30;98018.23;2210577;80;21142;-79
2021/04/07 08:45:15;;;;;;;14.10;7.90;;;;;;;3.57;50.57;98021.86;2217389;80;21146;-80
2021/04/07 08:48:21;;;;;;;15.73;9.27;;;;;;;3.67;50.88;98020.84;2217171;80;21141;-79
2021/04/07 08:51:24;;;;;;;13.07;8.40;;;;;;;3.84;50.60;98029.02;2217310;80;21265;-81
2021/04/07 08:54:25;;;;;;;11.77;6.43;;;;;;;3.95;50.56;98029.28;2217627;80;21153;-79
2021/04/07 08:57:26;;;;;;;9.07;6.03;;;;;;;4.10;50.95;98025.77;2217410;80;21277;-79
2021/04/07 09:00:27;;;;;;;12.10;6.97;;;;;;;3.97;49.93;98031.48;2217365;80;21193;-78
2021/04/07 09:03:28;;;;;;;11.87;7.70;;;;;;;3.64;50.84;98031.50;2216821;80;21186;-77
2021/04/07 09:06:29;;;;;;;8.07;4.90;;;;;;;3.46;51.81;98039.19;2216838;80;21141;-77
2021/04/07 09:09:30;;;;;;;7.50;5.10;;;;;;;3.33;52.43;98042.27;2217414;80;21133;-78
2021/04/07 09:12:31;;;;;;;7.97;4.97;;;;;;;3.39;52.75;98045.42;2217153;80;21106;-79
2021/04/07 09:15:32;;;;;;;7.30;4.90;;;;;;;3.62;52.54;98052.52;2217238;80;21253;-79
2021/04/07 09:18:34;;;;;;;7.23;4.83;;;;;;;3.81;51.04;98051.75;2216952;80;21408;-78
2021/04/07 09:21:35;;;;;;;9.20;5.27;;;;;;;3.94;51.10;98043.89;2217044;80;21160;-79
2021/04/07 09:24:37;;;;;;;6.07;5.00;;;;;;;3.85;50.70;98037.21;2216970;80;21122;-80
2021/04/07 09:27:38;;;;;;;7.97;4.77;;;;;;;3.79;50.72;98030.60;2217101;80;21514;-77
2021/04/07 09:30:39;;;;;;;11.87;6.83;;;;;;;3.73;50.83;98031.73;2217339;80;21134;-80
2021/04/07 09:33:43;;;;;;;10.17;5.53;;;;;;;4.17;51.40;98034.13;2217216;80;21253;-80
2021/04/07 09:36:46;;;;;;;9.23;5.90;;;;;;;4.75;50.23;98037.64;2217396;80;21244;-79
2021/04/07 09:39:47;;;;;;;9.50;5.70;;;;;;;5.30;49.86;98035.36;2216814;80;21188;-78
2021/04/07 09:42:48;;;;;;;4.93;4.47;;;;;;;5.82;47.60;98023.38;2215255;80;21299;-79
2021/04/07 09:45:49;;;;;;;8.10;4.97;;;;;;;5.80;47.07;98019.88;2210253;81;21399;-79
2021/04/07 09:48:50;;;;;;;7.80;4.47;;;;;;;5.83;45.17;98021.23;2210693;81;21133;-80
2021/04/07 09:51:52;;;;;;;7.43;5.60;;;;;;;5.65;46.32;98023.95;2211060;81;21146;-79
2021/04/07 09:54:53;;;;;;;11.63;7.00;;;;;;;5.33;45.78;98027.66;2209944;81;21737;-80
2021/04/07 09:57:54;;;;;;;9.67;6.67;;;;;;;4.96;47.04;98031.19;2209654;81;21245;-79
2021/04/07 10:00:55;;;;;;;12.57;6.87;;;;;;;4.77;47.57;98032.09;2209325;81;21198;-78
2021/04/07 10:03:57;;;;;;;9.70;5.70;;;;;;;4.83;48.49;98036.52;2210208;81;21276;-77
2021/04/07 10:06:58;;;;;;;9.60;6.63;;;;;;;4.73;48.11;98038.45;2209915;81;21138;-79
2021/04/07 10:09:59;;;;;;;15.17;5.87;;;;;;;4.80;48.72;98036.03;2210444;81;21146;-81
2021/04/07 10:13:01;;;;;;;8.30;5.73;;;;;;;5.24;48.66;98032.65;2210250;81;21134;-79
2021/04/07 10:16:02;;;;;;;9.30;5.43;;;;;;;5.89;45.96;98034.29;2210316;81;21539;-79
2021/04/07 10:19:03;;;;;;;9.43;6.70;;;;;;;6.17;45.23;98035.27;2210525;81;21244;-79
2021/04/07 10:22:07;;;;;;;11.30;7.30;;;;;;;5.98;46.49;98029.30;2210529;81;21106;-79
2021/04/07 10:25:13;;;;;;;8.90;5.65;;;;;;;5.88;46.19;98029.95;2210180;81;21276;-79
2021/04/07 10:28:14;;;;;;;8.27;5.93;;;;;;;5.43;45.49;98034.75;2210131;81;21261;-79
2021/04/07 10:31:15;;;;;;;9.83;5.57;;;;;;;4.85;46.37;98052.94;2210200;81;21418;-79
2021/04/07 10:34:16;;;;;;;11.13;6.50;;;;;;;4.44;48.34;98060.64;2209930;81;21161;-79
2021/04/07 10:37:17;;;;;;;5.27;4.57;;;;;;;4.07;52.92;98073.48;2210029;81;21256;-80
2021/04/07 10:40:18;;;;;;;8.13;5.27;;;;;;;3.51;55.91;98084.49;2209686;81;21292;-79
2021/04/07 10:43:19;;;;;;;7.70;5.43;;;;;;;3.18;58.96;98090.42;2209995;80;21559;-80
2021/04/07 10:46:20;;;;;;;8.83;5.70;;;;;;;3.34;58.89;98085.28;2209931;81;21126;-80
2021/04/07 10:49:21;;;;;;;8.67;4.77;;;;;;;3.77;58.96;98081.31;2210177;81;21114;-79
2021/04/07 10:52:22;;;;;;;4.37;3.87;;;;;;;4.33;57.45;98085.73;2210494;81;21146;-80
2021/04/07 10:55:24;;;;;;;5.57;3.90;;;;;;;5.15;53.80;98103.58;2210459;81;21265;-79
2021/04/07 10:58:25;;;;;;;5.10;3.67;;;;;;;5.11;51.00;98080.23;2210676;81;21137;-79
2021/04/07 11:01:26;;;;;;;4.30;3.87;;;;;;;5.11;51.00;98080.23;2210481;81;21312;-79
2021/04/07 11:04:27;;;;;;;5.63;3.90;;;;;;;5.02;50.07;98073.98;2211098;81;21150;-79
2021/04/07 11:07:28;;;;;;;4.70;3.40;;;;;;;5.28;51.46;98078.44;2210570;81;21122;-79
2021/04/07 11:10:30;;;;;;;4.63;3.03;;;;;;;5.53;49.94;98078.09;2210408;81;21149;-80
2021/04/07 11:13:31;;;;;;;3.93;3.17;;;;;;;6.17;50.37;98068.08;2210352;81;21138;-79
2021/04/07 11:16:32;;;;;;;5.33;4.30;;;;;;;6.61;48.13;98070.08;2210918;81;21146;-79
2021/04/07 11:19:33;;;;;;;3.53;3.10;;;;;;;6.35;50.21;98087.81;2210771;81;21285;-80
2021/04/07 11:22:34;;;;;;;5.10;3.93;;;;;;;5.62;52.29;98088.62;2211090;81;21141;-80
2021/04/07 11:25:35;;;;;;;4.20;3.57;;;;;;;5.09;53.51;98094.84;2210488;81;21173;-79
2021/04/07 11:28:36;;;;;;;4.30;3.10;;;;;;;4.66;53.47;98097.32;2210703;81;21142;-78
2021/04/07 11:31:37;;;;;;;15.23;6.43;;;;;;;4.46;54.66;98161.05;2210599;81;21162;-80
2021/04/07 11:34:43;;;;;;;14.53;7.90;;;;;;;4.16;58.12;98108.58;2210744;81;21263;-79
2021/04/07 11:37:46;;;;;;;18.43;8.47;;;;;;;3.57;61.22;98117.33;2210088;80;21182;-79
2021/04/07 11:41:01;;;;;;;16.13;8.10;;;;;;;3.34;60.76;98112.78;2210263;80;21122;-78
2021/04/07 11:47:09;;;;;;;11.27;6.87;;;;;;;3.54;68.68;98120.70;2209949;81;21601;-80
2021/04/07 11:50:10;;;;;;;6.53;4.50;;;;;;;4.08;66.71;98114.84;2210221;81;21098;-78
2021/04/07 11:53:11;;;;;;;11.87;6.33;;;;;;;4.51;62.43;98117.64;2210336;81;21094;-79
2021/04/07 11:56:12;;;;;;;33.33;15.00;;;;;;;4.81;59.18;98106.72;2209749;81;21614;-78
2021/04/07 11:59:13;;;;;;;11.90;7.80;;;;;;;5.15;57.57;98109.63;2210042;80;21439;-80
2021/04/07 12:02:14;;;;;;;14.73;8.33;;;;;;;5.49;55.68;98096.12;2209804;81;21248;-79
2021/04/07 12:05:18;;;;;;;11.63;7.00;;;;;;;6.15;55.01;98091.38;2210045;81;21121;-78
2021/04/07 12:08:18;;;;;;;9.00;5.73;;;;;;;6.82;53.38;98092.44;2209433;80;21280;-79
2021/04/07 12:11:19;;;;;;;9.67;6.37;;;;;;;7.37;49.98;98091.04;2209564;81;21134;-79
2021/04/07 12:14:20;;;;;;;8.40;6.10;;;;;;;7.57;47.96;98081.33;2210202;81;21288;-80
2021/04/07 12:17:21;;;;;;;8.33;6.10;;;;;;;7.07;49.31;98090.22;2210088;81;21536;-79
2021/04/07 12:20:22;;;;;;;17.17;8.93;;;;;;;6.25;51.45;98098.45;2209985;81;21588;-78
2021/04/07 12:23:24;;;;;;;11.87;5.73;;;;;;;5.58;53.20;98120.89;2209921;81;21442;-77
2021/04/07 12:26:25;;;;;;;14.53;7.07;;;;;;;4.36;58.74;98128.48;2209978;81;21126;-81
2021/04/07 12:29:26;;;;;;;15.33;8.77;;;;;;;3.59;59.12;98127.28;2209708;81;21241;-79
2021/04/07 12:32:29;;;;;;;18.77;7.77;;;;;;;3.27;59.09;98123.34;2209107;81;21269;-81
2021/04/07 12:35:30;;;;;;;20.07;5.57;;;;;;;3.18;58.16;98122.66;2209750;81;21396;-79
2021/04/07 12:38:32;;;;;;;11.87;5.83;;;;;;;3.31;57.36;98125.59;2210137;81;21157;-81
2021/04/07 12:41:44;;;;;;;9.77;4.77;;;;;;;3.32;56.88;98120.90;2209794;81;21182;-79
2021/04/07 12:44:37;;;;;;;10.17;5.20;;;;;;;3.33;55.80;98117.48;2208062;80;21154;-79
2021/04/07 12:47:40;;;;;;;9.27;4.90;;;;;;;3.40;54.25;98125.86;2210566;81;21295;-78
2021/04/07 12:50:42;;;;;;;8.60;4.83;;;;;;;3.34;56.30;98129.55;2209792;81;21162;-79
2021/04/07 12:53:43;;;;;;;12.10;6.60;;;;;;;3.28;56.02;98121.64;2210268;81;21248;-78
2021/04/07 12:56:44;;;;;;;12.40;7.70;;;;;;;3.50;56.36;98132.64;2209986;81;21273;-79
2021/04/07 12:59:45;;;;;;;9.17;5.50;;;;;;;3.83;58.21;98133.98;2210958;81;21173;-79
2021/04/07 13:02:46;;;;;;;11.73;6.33;;;;;;;3.93;59.83;98138.97;2210350;81;21257;-79
2021/04/07 13:05:47;;;;;;;6.47;3.97;;;;;;;4.16;58.81;98127.95;2210781;81;21130;-81
2021/04/07 13:08:48;;;;;;;6.00;3.57;;;;;;;4.43;58.61;98131.67;2210511;81;21330;-80
2021/04/07 13:11:49;;;;;;;11.23;6.23;;;;;;;4.64;57.68;98123.14;2210329;81;21134;-78
2021/04/07 13:14:51;;;;;;;9.53;4.57;;;;;;;4.93;56.28;98123.80;2210202;81;21240;-80
2021/04/07 13:17:52;;;;;;;7.23;4.20;;;;;;;5.06;54.09;98120.65;2210157;81;21154;-78
2021/04/07 13:21:01;;;;;;;11.30;5.80;;;;;;;5.07;54.83;98122.39;2210093;81;21288;-78
2021/04/07 13:23:56;;;;;;;7.23;4.80;;;;;;;4.98;53.98;98120.90;2208396;80;21749;-78
2021/04/07 13:26:57;;;;;;;9.30;5.73;;;;;;;4.98;53.98;98120.90;2209423;81;21468;-77
2021/04/07 13:29:58;;;;;;;12.70;7.67;;;;;;;4.74;53.87;98125.52;2210494;81;21484;-78
2021/04/07 13:33:04;;;;;;;9.63;4.23;;;;;;;4.68;54.98;98117.63;2209907;81;21268;-78
2021/04/07 13:36:07;;;;;;;11.67;4.83;;;;;;;4.66;54.24;98119.30;2209470;80;21268;-79
2021/04/07 13:39:20;;;;;;;5.62;3.87;;;;;;;4.67;53.38;98117.16;2209744;80;21276;-78
2021/04/07 13:45:28;;;;;;;5.33;3.80;;;;;;;5.24;52.03;98108.98;2217631;80;21284;-80
2021/04/07 13:48:31;;;;;;;8.53;5.07;;;;;;;5.20;52.18;98118.39;2220463;80;21545;-78
2021/04/07 13:51:32;;;;;;;16.77;7.60;;;;;;;5.20;52.18;98118.39;2219913;80;21145;-79
2021/04/07 13:54:33;;;;;;;12.17;5.17;;;;;;;4.99;52.95;98132.12;2219389;80;21256;-78
2021/04/07 13:57:34;;;;;;;7.93;4.53;;;;;;;4.99;52.95;98132.12;2220584;80;21129;-79
2021/04/07 14:00:35;;;;;;;6.03;4.50;;;;;;;5.18;53.79;98145.03;2220334;80;21303;-79
2021/04/07 14:03:36;;;;;;;5.90;4.13;;;;;;;5.36;53.37;98133.39;2220448;80;21275;-80
2021/04/07 14:06:37;;;;;;;6.57;4.20;;;;;;;5.36;53.37;98133.39;2220581;80;21264;-78
2021/04/07 14:09:38;;;;;;;10.60;4.53;;;;;;;5.39;50.56;98131.30;2220175;80;21237;-78
2021/04/07 14:12:42;;;;;;;6.57;3.80;;;;;;;5.54;48.71;98119.08;2220396;80;21265;-79
2021/04/07 14:15:42;;;;;;;5.40;3.20;;;;;;;5.80;46.84;98126.06;2220575;80;21156;-78